createdAt,value
2022-09-18T00:01:42.475Z,96.90
2022-09-18T00:04:14.941Z,96.65
2022-09-18T00:06:45.862Z,96.52
2022-09-18T00:09:16.033Z,96.23
2022-09-18T00:11:46.308Z,96.10
2022-09-18T00:14:16.644Z,95.36
2022-09-18T00:16:45.163Z,95.04
2022-09-18T00:19:14.998Z,94.75
2022-09-18T00:21:45.886Z,95.14
2022-09-18T00:24:18.744Z,95.21
2022-09-18T00:26:47.430Z,95.10
2022-09-18T00:29:17.269Z,95.14
2022-09-18T00:31:46.471Z,94.99
2022-09-18T00:34:16.553Z,94.47
2022-09-18T00:36:46.441Z,94.02
2022-09-18T00:39:15.293Z,94.07
2022-09-18T00:41:44.980Z,94.30
2022-09-18T00:44:36.634Z,94.59
2022-09-18T00:47:19.334Z,94.30
2022-09-18T00:49:51.012Z,94.30
2022-09-18T00:52:25.458Z,94.51
2022-09-18T00:54:57.625Z,94.98
2022-09-18T00:57:30.450Z,95.16
2022-09-18T00:59:59.068Z,95.09
2022-09-18T01:02:28.050Z,95.23
2022-09-18T01:04:56.598Z,94.82
2022-09-18T01:07:38.186Z,94.85
2022-09-18T01:10:24.430Z,94.03
2022-09-18T01:12:56.440Z,94.05
2022-09-18T01:15:31.927Z,94.38
2022-09-18T01:18:10.875Z,94.57
2022-09-18T01:20:55.643Z,94.35
2022-09-18T01:24:02.918Z,94.20
2022-09-18T01:26:45.000Z,94.20
2022-09-18T01:29:22.890Z,94.20
2022-09-18T01:31:56.564Z,93.91
2022-09-18T01:34:31.421Z,93.77
2022-09-18T01:37:05.092Z,93.93
2022-09-18T01:39:38.930Z,94.17
2022-09-18T01:42:11.102Z,94.18
2022-09-18T01:44:45.524Z,94.13
2022-09-18T01:47:16.158Z,94.43
2022-09-18T01:49:47.859Z,94.07
2022-09-18T01:52:21.932Z,94.33
2022-09-18T01:54:57.736Z,94.49
2022-09-18T01:57:29.528Z,94.81
2022-09-18T02:00:03.793Z,94.62
2022-09-18T02:02:48.276Z,93.91
2022-09-18T02:05:22.234Z,93.72
2022-09-18T02:08:10.476Z,93.38
2022-09-18T02:10:52.062Z,93.69
2022-09-18T02:13:25.477Z,93.99
2022-09-18T02:16:02.520Z,93.71
2022-09-18T02:18:34.781Z,93.66
2022-09-18T02:21:11.328Z,93.94
2022-09-18T02:23:42.252Z,93.42
2022-09-18T02:26:15.096Z,92.83
2022-09-18T02:28:44.959Z,93.01
2022-09-18T02:31:15.063Z,93.22
2022-09-18T02:33:43.702Z,92.57
2022-09-18T02:36:38.036Z,92.74
2022-09-18T02:39:18.813Z,92.99
2022-09-18T02:41:55.181Z,92.08
2022-09-18T02:44:31.036Z,92.43
2022-09-18T02:47:10.460Z,91.93
2022-09-18T02:49:47.656Z,92.18
2022-09-18T02:52:20.014Z,91.98
2022-09-18T02:54:56.313Z,91.97
2022-09-18T02:57:31.960Z,91.46
2022-09-18T03:00:02.834Z,91.79
2022-09-18T03:02:35.153Z,91.56
2022-09-18T03:05:03.824Z,91.77
2022-09-18T03:07:55.040Z,90.69
2022-09-18T03:10:23.456Z,89.04
2022-09-18T03:12:52.224Z,88.49
2022-09-18T03:15:22.321Z,89.45
2022-09-18T03:17:53.682Z,91.34
2022-09-18T03:20:22.177Z,90.72
2022-09-18T03:22:50.892Z,91.45
2022-09-18T03:25:19.704Z,91.67
2022-09-18T03:27:47.986Z,90.76
2022-09-18T03:30:26.541Z,91.22
2022-09-18T03:32:56.760Z,91.61
2022-09-18T03:35:25.388Z,91.35
2022-09-18T03:37:58.537Z,92.08
2022-09-18T03:40:31.164Z,92.96
2022-09-18T03:43:02.647Z,92.92
2022-09-18T03:45:31.045Z,92.79
2022-09-18T03:48:00.872Z,92.98
2022-09-18T03:50:30.040Z,92.35
2022-09-18T03:52:58.517Z,92.01
2022-09-18T03:55:37.930Z,91.95
2022-09-18T03:58:29.382Z,89.75
2022-09-18T04:01:32.326Z,88.47
2022-09-18T04:04:37.626Z,90.32
2022-09-18T04:07:14.956Z,90.57
2022-09-18T04:10:00.513Z,90.72
2022-09-18T04:12:29.293Z,90.79
2022-09-18T04:15:10.763Z,90.92
2022-09-18T04:17:39.089Z,91.56
2022-09-18T04:20:09.784Z,90.86
2022-09-18T04:22:38.464Z,90.02
2022-09-18T04:25:07.809Z,90.66
2022-09-18T04:27:36.397Z,90.89
2022-09-18T04:30:05.219Z,91.14
2022-09-18T04:32:36.175Z,90.57
2022-09-18T04:35:05.855Z,90.40
2022-09-18T04:37:35.948Z,89.98
2022-09-18T04:40:05.472Z,89.89
2022-09-18T04:42:33.900Z,89.22
2022-09-18T04:45:03.308Z,88.79
2022-09-18T04:47:31.918Z,88.89
2022-09-18T04:50:00.340Z,88.76
2022-09-18T04:52:31.337Z,88.67
2022-09-18T04:55:01.054Z,86.93
2022-09-18T04:57:29.833Z,87.99
2022-09-18T04:59:58.085Z,87.87
2022-09-18T05:02:26.482Z,87.66
2022-09-18T05:04:55.385Z,88.51
2022-09-18T05:07:32.210Z,87.60
2022-09-18T05:10:02.157Z,87.03
2022-09-18T05:12:32.806Z,86.57
2022-09-18T05:15:01.446Z,87.68
2022-09-18T05:17:30.185Z,87.56
2022-09-18T05:20:01.387Z,88.19
2022-09-18T05:22:36.843Z,87.91
2022-09-18T05:25:11.504Z,88.16
2022-09-18T05:27:39.875Z,87.18
2022-09-18T05:30:10.630Z,88.28
2022-09-18T05:32:59.282Z,87.79
2022-09-18T05:35:31.936Z,87.80
2022-09-18T05:38:01.451Z,88.63
2022-09-18T05:40:34.591Z,88.73
2022-09-18T05:43:03.961Z,87.21
2022-09-18T05:45:34.668Z,87.98
2022-09-18T05:48:08.641Z,88.69
2022-09-18T05:50:37.540Z,88.45
2022-09-18T05:53:08.605Z,87.53
2022-09-18T05:55:48.095Z,87.39
2022-09-18T05:58:18.023Z,88.02
2022-09-18T06:00:47.116Z,88.67
2022-09-18T06:03:24.724Z,87.16
2022-09-18T06:05:54.633Z,88.22
2022-09-18T06:08:24.424Z,88.35
2022-09-18T06:10:54.810Z,88.49
2022-09-18T06:13:23.254Z,87.49
2022-09-18T06:15:54.093Z,87.09
2022-09-18T06:18:33.198Z,87.49
2022-09-18T06:21:03.322Z,87.88
2022-09-18T06:23:32.583Z,86.32
2022-09-18T06:26:11.477Z,85.74
2022-09-18T06:28:43.152Z,85.55
2022-09-18T06:31:12.097Z,86.32
2022-09-18T06:34:04.056Z,86.51
2022-09-18T06:36:32.437Z,86.16
2022-09-18T06:39:20.998Z,86.52
2022-09-18T06:41:53.917Z,85.96
2022-09-18T06:44:32.537Z,85.83
2022-09-18T06:47:05.540Z,85.28
2022-09-18T06:49:41.984Z,85.63
2022-09-18T06:52:10.692Z,86.00
2022-09-18T06:54:42.639Z,85.87
2022-09-18T06:57:12.392Z,85.13
2022-09-18T06:59:40.753Z,85.47
2022-09-18T07:02:18.583Z,85.37
2022-09-18T07:04:57.441Z,85.51
2022-09-18T07:07:26.833Z,85.08
2022-09-18T07:09:57.625Z,85.72
2022-09-18T07:12:32.695Z,85.96
2022-09-18T07:15:04.139Z,85.61
2022-09-18T07:17:33.202Z,84.57
2022-09-18T07:20:03.373Z,85.44
2022-09-18T07:22:43.702Z,84.12
2022-09-18T07:25:14.937Z,84.73
2022-09-18T07:27:46.465Z,85.11
2022-09-18T07:30:16.907Z,85.09
2022-09-18T07:32:46.606Z,85.38
2022-09-18T07:35:18.977Z,84.77
2022-09-18T07:37:47.340Z,84.32
2022-09-18T07:40:20.768Z,84.35
2022-09-18T07:43:09.004Z,84.29
2022-09-18T07:45:40.925Z,84.46
2022-09-18T07:48:09.359Z,83.16
2022-09-18T07:50:43.463Z,84.04
2022-09-18T07:53:11.801Z,84.12
2022-09-18T07:55:45.364Z,83.45
2022-09-18T07:58:15.908Z,83.38
2022-09-18T08:00:57.097Z,82.87
2022-09-18T08:03:26.440Z,83.81
2022-09-18T08:06:23.984Z,83.02
2022-09-18T08:09:03.297Z,83.72
2022-09-18T08:11:57.988Z,84.17
2022-09-18T08:14:41.807Z,83.00
2022-09-18T08:17:32.828Z,82.75
2022-09-18T08:20:11.998Z,83.20
2022-09-18T08:22:50.930Z,83.95
2022-09-18T08:25:21.358Z,83.26
2022-09-18T08:27:51.242Z,82.63
2022-09-18T08:30:32.313Z,82.74
2022-09-18T08:33:06.756Z,85.02
2022-09-18T08:35:35.865Z,82.81
2022-09-18T08:38:17.359Z,82.75
2022-09-18T08:41:12.746Z,83.67
2022-09-18T08:44:00.328Z,82.74
2022-09-18T08:46:36.769Z,83.57
2022-09-18T08:49:18.551Z,82.52
2022-09-18T08:51:54.585Z,83.69
2022-09-18T08:54:30.021Z,83.59
2022-09-18T08:57:38.474Z,82.29
2022-09-18T09:00:20.668Z,81.91
2022-09-18T09:03:24.320Z,81.86
2022-09-18T09:05:59.442Z,81.57
2022-09-18T09:08:46.992Z,81.27
2022-09-18T09:11:23.681Z,80.05
2022-09-18T09:14:16.395Z,81.79
2022-09-18T09:16:51.348Z,81.13
2022-09-18T09:19:31.507Z,80.72
2022-09-18T09:22:08.591Z,80.50
2022-09-18T09:24:46.999Z,79.17
2022-09-18T09:28:00.111Z,80.04
2022-09-18T09:30:54.655Z,80.09
2022-09-18T09:33:53.357Z,79.59
2022-09-18T09:36:43.506Z,79.24
2022-09-18T09:39:19.833Z,78.57
2022-09-18T09:41:54.995Z,79.32
2022-09-18T09:44:30.693Z,79.04
2022-09-18T09:47:14.734Z,79.95
2022-09-18T09:49:56.358Z,79.42
2022-09-18T09:52:27.934Z,77.47
2022-09-18T09:55:19.677Z,77.54
2022-09-18T09:58:00.957Z,78.39
2022-09-18T10:00:35.248Z,76.72
2022-09-18T10:03:29.837Z,77.92
2022-09-18T10:06:03.835Z,78.95
2022-09-18T10:08:42.013Z,77.69
2022-09-18T10:11:13.208Z,77.27
2022-09-18T10:13:49.906Z,77.37
2022-09-18T10:16:21.580Z,76.76
2022-09-18T10:18:50.997Z,75.92
2022-09-18T10:21:23.452Z,77.62
2022-09-18T10:24:00.064Z,76.42
2022-09-18T10:26:35.920Z,77.68
2022-09-18T10:29:04.405Z,76.64
2022-09-18T10:31:49.409Z,77.42
2022-09-18T10:34:40.207Z,75.21
2022-09-18T10:37:15.807Z,77.03
2022-09-18T10:39:54.017Z,76.90
2022-09-18T10:42:25.608Z,76.05
2022-09-18T10:45:04.836Z,75.92
2022-09-18T10:47:37.627Z,77.60
2022-09-18T10:50:19.161Z,77.05
2022-09-18T10:52:54.050Z,75.97
2022-09-18T10:55:32.241Z,75.22
2022-09-18T10:58:14.310Z,74.72
2022-09-18T11:00:50.958Z,76.70
2022-09-18T11:03:49.945Z,75.61
2022-09-18T11:06:29.773Z,76.82
2022-09-18T11:09:03.277Z,76.02
2022-09-18T11:11:38.427Z,74.46
2022-09-18T11:14:19.126Z,76.05
2022-09-18T11:16:59.135Z,74.55
2022-09-18T11:19:30.992Z,76.12
2022-09-18T11:22:03.785Z,76.28
2022-09-18T11:24:42.008Z,76.23
2022-09-18T11:27:21.783Z,75.93
2022-09-18T11:29:52.179Z,75.90
2022-09-18T11:32:25.267Z,74.71
2022-09-18T11:34:58.932Z,75.55
2022-09-18T11:37:36.814Z,74.83
2022-09-18T11:40:15.878Z,74.66
2022-09-18T11:42:50.732Z,75.09
2022-09-18T11:45:35.776Z,73.53
2022-09-18T11:48:12.511Z,74.15
2022-09-18T11:50:41.031Z,72.37
2022-09-18T11:53:17.749Z,73.82
2022-09-18T11:55:51.005Z,75.14
2022-09-18T11:58:26.951Z,72.60
2022-09-18T12:01:10.746Z,74.67
2022-09-18T12:03:44.823Z,70.72
2022-09-18T12:06:22.676Z,73.96
2022-09-18T12:08:58.756Z,71.06
2022-09-18T12:11:37.428Z,71.36
2022-09-18T12:14:15.659Z,73.44
2022-09-18T12:17:00.753Z,72.43
2022-09-18T12:19:35.622Z,71.73
2022-09-18T12:22:12.436Z,73.09
2022-09-18T12:24:41.484Z,74.45
2022-09-18T12:27:27.661Z,73.38
2022-09-18T12:30:04.879Z,73.53
2022-09-18T12:32:59.090Z,71.73
2022-09-18T12:35:46.748Z,71.80
2022-09-18T12:38:31.121Z,72.82
2022-09-18T12:41:13.318Z,74.76
2022-09-18T12:43:59.491Z,72.19
2022-09-18T12:46:38.478Z,72.29
2022-09-18T12:49:31.045Z,70.64
2022-09-18T12:52:08.356Z,71.24
2022-09-18T12:55:05.064Z,71.50
2022-09-18T12:57:45.399Z,73.25
2022-09-18T13:00:16.277Z,74.06
2022-09-18T13:02:53.556Z,71.79
2022-09-18T13:05:28.473Z,73.15
2022-09-18T13:08:04.121Z,72.96
2022-09-18T13:10:38.755Z,74.07
2022-09-18T13:13:14.338Z,73.71
2022-09-18T13:15:47.301Z,72.12
2022-09-18T13:18:27.840Z,72.27
2022-09-18T13:21:02.244Z,70.90
2022-09-18T13:23:33.892Z,69.91
2022-09-18T13:26:03.952Z,71.03
2022-09-18T13:28:33.384Z,72.03
2022-09-18T13:31:26.418Z,71.66
2022-09-18T13:33:59.033Z,72.39
2022-09-18T13:36:29.812Z,69.55
2022-09-18T13:39:05.978Z,71.06
2022-09-18T13:41:43.731Z,72.37
2022-09-18T13:44:20.518Z,72.96
2022-09-18T13:46:50.388Z,72.81
2022-09-18T13:49:29.815Z,72.38
2022-09-18T13:52:18.360Z,71.90
2022-09-18T13:55:01.927Z,73.69
2022-09-18T13:57:31.907Z,72.98
2022-09-18T14:00:02.441Z,75.08
2022-09-18T14:02:41.420Z,74.98
2022-09-18T14:05:34.026Z,73.87
2022-09-18T14:08:36.230Z,74.14
2022-09-18T14:11:17.761Z,72.82
2022-09-18T14:13:54.609Z,74.01
2022-09-18T14:16:30.789Z,74.26
2022-09-18T14:19:04.255Z,75.05
2022-09-18T14:21:34.627Z,74.48
2022-09-18T14:24:21.143Z,73.70
2022-09-18T14:27:02.885Z,72.92
2022-09-18T14:29:34.542Z,73.81
2022-09-18T14:32:03.725Z,74.13
2022-09-18T14:34:37.250Z,73.53
2022-09-18T14:37:24.593Z,72.53
2022-09-18T14:39:55.379Z,74.33
2022-09-18T14:42:33.111Z,73.95
2022-09-18T14:45:19.571Z,73.59
2022-09-18T14:47:49.930Z,74.16
2022-09-18T14:50:29.232Z,73.61
2022-09-18T14:52:58.751Z,75.21
2022-09-18T14:55:32.401Z,74.66
2022-09-18T14:58:06.246Z,77.35
2022-09-18T15:00:36.914Z,77.00
2022-09-18T15:03:08.765Z,77.30
2022-09-18T15:05:37.963Z,76.67
2022-09-18T15:08:10.545Z,77.51
2022-09-18T15:10:40.831Z,77.44
2022-09-18T15:13:13.449Z,77.31
2022-09-18T15:15:44.122Z,77.81
2022-09-18T15:18:21.304Z,78.81
2022-09-18T15:20:51.536Z,79.56
2022-09-18T15:23:21.786Z,79.39
2022-09-18T15:25:53.121Z,79.59
2022-09-18T15:28:25.477Z,79.16
2022-09-18T15:31:00.577Z,80.00
2022-09-18T15:33:29.364Z,79.81
2022-09-18T15:35:58.448Z,78.95
2022-09-18T15:38:35.169Z,78.13
2022-09-18T15:41:22.361Z,78.90
2022-09-18T15:43:52.078Z,77.40
2022-09-18T15:46:28.409Z,79.50
2022-09-18T15:49:00.421Z,76.87
2022-09-18T15:51:30.229Z,78.45
2022-09-18T15:54:17.754Z,76.37
2022-09-18T15:56:51.733Z,75.57
2022-09-18T15:59:31.286Z,76.31
2022-09-18T16:02:04.888Z,75.92
2022-09-18T16:04:34.550Z,75.71
2022-09-18T16:07:06.047Z,75.71
2022-09-18T16:09:42.970Z,75.90
2022-09-18T16:12:37.977Z,76.98
2022-09-18T16:15:23.149Z,76.50
2022-09-18T16:18:06.145Z,76.72
2022-09-18T16:20:39.463Z,75.12
2022-09-18T16:23:24.119Z,74.89
2022-09-18T16:26:10.662Z,74.81
2022-09-18T16:28:42.980Z,74.00
2022-09-18T16:31:15.307Z,74.19
2022-09-18T16:33:55.558Z,74.71
2022-09-18T16:36:30.455Z,74.97
2022-09-18T16:39:01.604Z,74.74
2022-09-18T16:41:31.224Z,73.42
2022-09-18T16:44:01.048Z,73.44
2022-09-18T16:46:35.347Z,74.95
2022-09-18T16:49:04.144Z,76.60
2022-09-18T16:51:33.122Z,78.45
2022-09-18T16:54:01.535Z,80.20
2022-09-18T16:56:32.808Z,81.34
2022-09-18T16:59:04.398Z,82.52
2022-09-18T17:01:53.918Z,82.70
2022-09-18T17:04:25.219Z,82.78
2022-09-18T17:06:53.857Z,82.90
2022-09-18T17:09:23.853Z,82.64
2022-09-18T17:11:52.232Z,82.01
2022-09-18T17:14:20.843Z,82.35
2022-09-18T17:16:50.684Z,82.98
2022-09-18T17:19:19.238Z,83.26
2022-09-18T17:21:47.730Z,83.23
2022-09-18T17:24:17.377Z,83.07
2022-09-18T17:26:45.668Z,82.42
2022-09-18T17:29:14.023Z,82.65
2022-09-18T17:31:42.605Z,82.46
2022-09-18T17:34:12.474Z,82.65
2022-09-18T17:36:41.082Z,82.66
2022-09-18T17:39:09.351Z,82.37
2022-09-18T17:41:38.186Z,82.44
2022-09-18T17:44:10.136Z,83.04
2022-09-18T17:46:38.516Z,84.10
2022-09-18T17:49:07.253Z,84.60
2022-09-18T17:51:37.136Z,85.07
2022-09-18T17:54:06.716Z,85.80
2022-09-18T17:56:35.305Z,86.43
2022-09-18T17:59:06.273Z,87.31
2022-09-18T18:01:37.612Z,88.15
2022-09-18T18:04:06.615Z,88.01
2022-09-18T18:06:37.004Z,88.38
2022-09-18T18:09:06.672Z,89.57
2022-09-18T18:11:35.135Z,89.74
2022-09-18T18:14:03.500Z,90.02
2022-09-18T18:16:32.633Z,89.68
2022-09-18T18:19:03.290Z,89.66
2022-09-18T18:21:33.383Z,90.39
2022-09-18T18:24:05.500Z,90.38
2022-09-18T18:26:34.091Z,90.83
2022-09-18T18:29:03.300Z,90.98
2022-09-18T18:31:34.139Z,90.55
2022-09-18T18:34:02.629Z,91.08
2022-09-18T18:36:33.639Z,91.54
2022-09-18T18:39:05.944Z,92.04
2022-09-18T18:41:34.788Z,91.81
2022-09-18T18:44:05.765Z,92.12
2022-09-18T18:46:36.731Z,92.17
2022-09-18T18:49:09.467Z,91.14
2022-09-18T18:51:45.633Z,91.18
2022-09-18T18:54:16.967Z,91.22
2022-09-18T18:56:46.386Z,91.55
2022-09-18T18:59:16.461Z,90.69
2022-09-18T19:01:45.606Z,89.78
2022-09-18T19:04:15.899Z,89.79
2022-09-18T19:06:45.256Z,90.09
2022-09-18T19:09:20.307Z,90.97
2022-09-18T19:11:49.796Z,91.15
2022-09-18T19:14:20.480Z,90.55
2022-09-18T19:16:49.957Z,90.02
2022-09-18T19:19:23.451Z,90.23
2022-09-18T19:21:52.250Z,90.71
2022-09-18T19:24:22.544Z,90.95
2022-09-18T19:26:50.972Z,91.58
2022-09-18T19:29:21.655Z,92.11
2022-09-18T19:31:50.939Z,91.40
2022-09-18T19:34:21.154Z,90.24
2022-09-18T19:36:50.476Z,91.25
2022-09-18T19:39:24.080Z,90.43
2022-09-18T19:41:55.885Z,90.93
2022-09-18T19:44:31.296Z,90.79
2022-09-18T19:47:03.348Z,90.61
2022-09-18T19:49:34.594Z,91.36
2022-09-18T19:52:03.354Z,91.58
2022-09-18T19:54:33.297Z,92.18
2022-09-18T19:57:01.613Z,91.47
2022-09-18T19:59:29.968Z,91.56
2022-09-18T20:01:58.593Z,91.86
2022-09-18T20:04:26.977Z,91.66
2022-09-18T20:06:55.321Z,90.81
2022-09-18T20:09:28.574Z,90.47
2022-09-18T20:11:58.395Z,90.23
2022-09-18T20:14:26.879Z,90.32
2022-09-18T20:16:55.706Z,90.42
2022-09-18T20:19:24.813Z,90.76
2022-09-18T20:21:53.786Z,90.82
2022-09-18T20:24:22.336Z,90.77
2022-09-18T20:26:51.446Z,90.75
2022-09-18T20:29:21.252Z,91.21
2022-09-18T20:31:50.112Z,91.69
2022-09-18T20:34:22.451Z,91.92
2022-09-18T20:36:52.088Z,92.29
2022-09-18T20:39:21.696Z,92.11
2022-09-18T20:41:50.146Z,92.18
2022-09-18T20:44:24.281Z,92.75
2022-09-18T20:46:56.660Z,92.51
2022-09-18T20:49:25.407Z,92.66
2022-09-18T20:51:54.484Z,92.67
2022-09-18T20:54:23.235Z,92.14
2022-09-18T20:56:51.671Z,91.97
2022-09-18T20:59:21.948Z,92.20
2022-09-18T21:01:51.806Z,92.05
2022-09-18T21:04:22.802Z,92.18
2022-09-18T21:06:56.417Z,91.98
2022-09-18T21:09:26.360Z,91.72
2022-09-18T21:11:56.843Z,91.95
2022-09-18T21:14:29.664Z,91.76
2022-09-18T21:16:58.041Z,91.81
2022-09-18T21:19:28.506Z,91.73
2022-09-18T21:21:57.168Z,91.47
2022-09-18T21:24:26.163Z,91.24
2022-09-18T21:26:54.469Z,91.19
2022-09-18T21:29:25.221Z,91.11
2022-09-18T21:31:59.091Z,91.50
2022-09-18T21:34:31.503Z,91.27
2022-09-18T21:37:01.701Z,90.44
2022-09-18T21:39:31.071Z,90.53
2022-09-18T21:42:01.606Z,90.31
2022-09-18T21:44:31.979Z,90.44
2022-09-18T21:47:04.022Z,90.76
2022-09-18T21:49:37.518Z,90.76
2022-09-18T21:52:07.652Z,90.77
2022-09-18T21:54:36.634Z,90.91
2022-09-18T21:57:05.709Z,91.02
2022-09-18T21:59:36.576Z,91.00
2022-09-18T22:02:09.383Z,91.18
2022-09-18T22:04:41.985Z,91.29
2022-09-18T22:07:11.632Z,91.06
2022-09-18T22:09:39.963Z,91.15
2022-09-18T22:12:08.770Z,90.92
2022-09-18T22:14:38.395Z,90.66
2022-09-18T22:17:09.354Z,90.81
2022-09-18T22:19:41.324Z,90.48
2022-09-18T22:22:11.229Z,90.49
2022-09-18T22:24:39.999Z,90.03
2022-09-18T22:27:08.918Z,90.08
2022-09-18T22:29:39.447Z,89.66
2022-09-18T22:32:10.177Z,89.79
2022-09-18T22:34:38.628Z,89.74
2022-09-18T22:37:08.013Z,89.76
2022-09-18T22:39:36.327Z,89.88
2022-09-18T22:42:05.127Z,89.73
2022-09-18T22:44:33.458Z,89.48
2022-09-18T22:47:02.943Z,89.85
2022-09-18T22:49:32.708Z,89.87
2022-09-18T22:52:01.859Z,89.78
2022-09-18T22:54:30.426Z,89.89
2022-09-18T22:56:58.881Z,89.15
2022-09-18T22:59:28.586Z,89.47
2022-09-18T23:02:01.411Z,89.70
2022-09-18T23:04:31.328Z,89.93
2022-09-18T23:07:02.043Z,90.06
2022-09-18T23:09:32.033Z,89.21
2022-09-18T23:12:00.897Z,89.31
2022-09-18T23:14:31.369Z,89.01
2022-09-18T23:17:00.723Z,89.28
2022-09-18T23:19:34.141Z,89.35
2022-09-18T23:22:04.016Z,89.63
2022-09-18T23:24:32.945Z,89.86
2022-09-18T23:27:01.400Z,89.93
2022-09-18T23:29:31.900Z,89.81
2022-09-18T23:32:00.511Z,89.79
2022-09-18T23:34:33.774Z,89.56
2022-09-18T23:37:03.656Z,89.62
2022-09-18T23:39:33.968Z,89.64
2022-09-18T23:42:04.498Z,89.74
2022-09-18T23:44:33.232Z,89.83
2022-09-18T23:47:02.131Z,89.81
2022-09-18T23:49:30.766Z,90.00
2022-09-18T23:52:00.819Z,90.06
2022-09-18T23:54:32.442Z,90.18
2022-09-18T23:57:00.839Z,89.56
2022-09-18T23:59:29.583Z,89.60
